createdAt,value
2023-02-14T00:45:21.541Z,15.23
2023-02-14T00:47:48.784Z,14.77
2023-02-14T00:50:15.761Z,16.17
2023-02-14T00:52:44.904Z,17.58
2023-02-14T00:55:12.037Z,19.30
2023-02-14T00:57:42.102Z,18.58
2023-02-14T01:00:15.521Z,15.52
2023-02-14T01:02:42.920Z,16.65
2023-02-14T01:05:27.774Z,18.17
2023-02-14T01:07:54.837Z,17.13
2023-02-14T01:10:24.863Z,18.73
2023-02-14T01:12:52.101Z,17.10
2023-02-14T01:15:18.966Z,14.95
2023-02-14T01:17:46.148Z,16.67
2023-02-14T01:20:24.026Z,15.70
2023-02-14T01:22:51.290Z,14.60
2023-02-14T01:25:19.435Z,14.00
2023-02-14T01:27:46.448Z,13.30
2023-02-14T01:30:19.688Z,13.73
2023-02-14T01:32:47.102Z,11.43
2023-02-14T01:35:14.275Z,12.25
2023-02-14T01:37:41.500Z,13.48
2023-02-14T01:40:17.557Z,11.20
2023-02-14T01:42:47.411Z,13.52
2023-02-14T01:45:43.374Z,9.55
2023-02-14T01:48:10.059Z,13.43
2023-02-14T01:50:45.703Z,14.10
2023-02-14T01:53:23.134Z,14.15
2023-02-14T01:55:57.264Z,14.30
2023-02-14T01:58:27.933Z,16.35
2023-02-14T02:00:58.010Z,14.63
2023-02-14T02:03:52.108Z,14.95
2023-02-14T02:06:43.528Z,13.20
2023-02-14T02:09:34.975Z,15.23
2023-02-14T02:33:53.135Z,15.13
2023-02-14T02:37:03.502Z,15.20
2023-02-14T02:40:04.323Z,14.65
2023-02-14T02:46:04.958Z,13.35
2023-02-14T02:48:57.721Z,14.65
2023-02-14T02:52:07.776Z,13.63
2023-02-14T02:54:44.872Z,13.90
2023-02-14T02:57:39.176Z,15.85
2023-02-14T03:00:09.102Z,13.35
2023-02-14T03:03:01.622Z,13.63
2023-02-14T03:05:35.267Z,17.25
2023-02-14T03:08:03.794Z,16.42
2023-02-14T03:10:33.864Z,17.48
2023-02-14T03:13:15.922Z,19.30
2023-02-14T03:15:58.091Z,11.23
2023-02-14T03:18:40.364Z,10.23
2023-02-14T03:21:15.634Z,13.02
2023-02-14T03:24:06.488Z,14.90
2023-02-14T03:26:57.318Z,14.43
2023-02-14T03:29:42.657Z,9.60
2023-02-14T03:32:33.968Z,9.88
2023-02-14T03:35:17.748Z,12.63
2023-02-14T03:37:55.792Z,15.05
2023-02-14T03:40:32.885Z,8.82
2023-02-14T03:43:29.285Z,12.57
2023-02-14T03:46:23.299Z,14.32
2023-02-14T03:48:52.977Z,10.02
2023-02-14T03:51:21.659Z,10.82
2023-02-14T03:53:52.326Z,10.52
2023-02-14T03:56:46.397Z,8.77
2023-02-14T03:59:22.815Z,7.75
2023-02-14T04:02:00.451Z,8.63
2023-02-14T04:04:31.293Z,9.63
2023-02-14T04:06:58.371Z,13.02
2023-02-14T04:09:25.413Z,12.45
2023-02-14T04:11:52.217Z,13.70
2023-02-14T04:14:19.128Z,13.02
2023-02-14T04:17:04.341Z,13.40
2023-02-14T04:19:33.432Z,13.77
2023-02-14T04:22:00.169Z,14.30
2023-02-14T04:24:27.109Z,13.80
2023-02-14T04:27:10.261Z,13.35
2023-02-14T04:29:47.304Z,15.10
2023-02-14T04:32:17.133Z,14.27
2023-02-14T04:34:44.287Z,14.63
2023-02-14T04:37:11.582Z,13.48
2023-02-14T04:39:38.871Z,13.35
2023-02-14T04:42:06.219Z,9.57
2023-02-14T04:44:34.540Z,8.63
2023-02-14T04:47:02.020Z,8.73
2023-02-14T04:49:28.851Z,9.23
2023-02-14T04:51:55.991Z,9.95
2023-02-14T04:54:22.898Z,9.07
2023-02-14T04:56:49.788Z,8.77
2023-02-14T04:59:17.051Z,9.80
2023-02-14T05:01:44.062Z,8.30
2023-02-14T05:04:11.076Z,10.25
2023-02-14T05:06:38.557Z,9.90
2023-02-14T05:09:20.871Z,8.88
2023-02-14T05:11:55.921Z,8.88
2023-02-14T05:14:28.199Z,10.02
2023-02-14T05:19:47.516Z,10.07
2023-02-14T05:22:16.867Z,6.53
2023-02-14T05:24:57.585Z,10.13
2023-02-14T05:27:32.495Z,10.45
2023-02-14T05:29:59.643Z,13.13
2023-02-14T05:32:29.566Z,16.08
2023-02-14T05:34:56.979Z,17.10
2023-02-14T05:43:14.843Z,8.75
2023-02-14T05:46:03.845Z,8.63
2023-02-14T05:48:32.732Z,8.15
2023-02-14T05:51:07.510Z,8.35
2023-02-14T05:53:35.362Z,6.63
2023-02-14T05:56:02.537Z,6.82
2023-02-14T05:58:32.489Z,8.68
2023-02-14T06:01:01.917Z,8.85
2023-02-14T06:03:29.039Z,7.00
2023-02-14T06:05:56.094Z,7.20
2023-02-14T06:08:40.821Z,7.63
2023-02-14T06:11:07.601Z,7.22
2023-02-14T06:13:41.620Z,9.52
2023-02-14T06:16:08.705Z,7.70
2023-02-14T06:18:35.583Z,8.30
2023-02-14T06:21:02.855Z,7.72
2023-02-14T06:23:29.806Z,13.10
2023-02-14T06:25:56.844Z,22.42
2023-02-14T06:28:23.894Z,10.15
2023-02-14T06:30:50.956Z,22.67
2023-02-14T06:33:18.120Z,21.60
2023-02-14T06:35:45.254Z,22.88
2023-02-14T06:38:12.265Z,23.95
2023-02-14T06:40:39.170Z,24.80
2023-02-14T06:43:06.165Z,23.48
2023-02-14T06:45:33.164Z,26.38
2023-02-14T06:48:00.378Z,23.40
2023-02-14T06:50:27.611Z,26.27
2023-02-14T06:52:54.497Z,27.00
2023-02-14T06:55:21.921Z,25.77
2023-02-14T06:57:48.852Z,27.15
2023-02-14T07:00:16.102Z,26.88
2023-02-14T07:02:44.352Z,27.05
2023-02-14T07:05:11.327Z,26.77
2023-02-14T07:07:38.159Z,26.65
2023-02-14T07:10:05.457Z,29.65
2023-02-14T07:12:35.461Z,26.73
2023-02-14T07:15:02.494Z,28.60
2023-02-14T07:17:29.450Z,27.20
2023-02-14T07:19:56.637Z,25.95
2023-02-14T07:22:23.409Z,25.00
2023-02-14T07:24:53.927Z,25.30
2023-02-14T07:27:20.991Z,24.20
2023-02-14T07:29:47.873Z,23.25
2023-02-14T07:32:15.107Z,25.70
2023-02-14T07:34:42.424Z,24.40
2023-02-14T07:37:09.373Z,23.10
2023-02-14T07:39:36.590Z,24.65
2023-02-14T07:42:03.439Z,25.55
2023-02-14T07:44:30.318Z,28.52
2023-02-14T07:46:57.471Z,26.42
2023-02-14T07:49:24.552Z,25.90
2023-02-14T07:51:51.294Z,25.15
2023-02-14T07:54:19.695Z,29.60
2023-02-14T07:56:47.311Z,24.60
2023-02-14T07:59:14.270Z,26.00
2023-02-14T08:01:41.405Z,32.45
2023-02-14T08:04:08.619Z,31.30
2023-02-14T08:06:35.479Z,30.75
2023-02-14T08:09:05.448Z,30.77
2023-02-14T08:11:51.076Z,32.13
2023-02-14T08:14:18.096Z,35.75
2023-02-14T08:16:44.999Z,32.30
2023-02-14T08:19:12.106Z,36.25
2023-02-14T08:21:39.333Z,35.47
2023-02-14T08:24:06.280Z,39.40
2023-02-14T08:26:33.642Z,40.80
2023-02-14T08:29:02.135Z,43.30
2023-02-14T08:31:36.322Z,41.15
2023-02-14T08:34:05.364Z,40.80
2023-02-14T08:36:34.925Z,40.30
2023-02-14T08:39:04.525Z,38.35
2023-02-14T08:41:32.434Z,36.72
2023-02-14T08:43:59.391Z,39.78
2023-02-14T08:46:26.362Z,40.33
2023-02-14T08:48:54.719Z,40.95
2023-02-14T08:51:22.992Z,36.03
2023-02-14T08:53:51.256Z,40.30
2023-02-14T08:56:19.601Z,39.30
2023-02-14T08:58:46.566Z,34.67
2023-02-14T09:01:16.115Z,34.15
2023-02-14T09:03:44.845Z,32.72
2023-02-14T09:06:17.699Z,30.50
2023-02-14T09:08:46.206Z,32.92
2023-02-14T09:11:24.755Z,34.00
2023-02-14T09:13:53.851Z,27.08
2023-02-14T09:16:21.701Z,31.88
2023-02-14T09:18:50.332Z,30.63
2023-02-14T09:21:20.303Z,28.73
2023-02-14T09:23:47.154Z,30.65
2023-02-14T09:26:16.454Z,32.78
2023-02-14T09:28:44.531Z,27.58
2023-02-14T09:31:16.943Z,18.05
2023-02-14T09:33:50.658Z,9.48
2023-02-14T09:36:20.161Z,7.35
2023-02-14T09:38:47.322Z,6.53
2023-02-14T09:41:30.054Z,7.85
2023-02-14T09:44:08.122Z,8.10
2023-02-14T09:46:55.901Z,6.20
2023-02-14T09:52:16.827Z,6.97
2023-02-14T09:54:51.304Z,7.38
2023-02-14T09:57:57.000Z,7.60
2023-02-14T10:00:40.652Z,7.13
2023-02-14T10:03:29.584Z,6.82
2023-02-14T10:06:05.678Z,36.90
2023-02-14T10:09:03.938Z,8.27
2023-02-14T10:11:37.815Z,7.68
2023-02-14T10:14:12.487Z,6.93
2023-02-14T10:16:51.718Z,7.72
2023-02-14T10:19:32.160Z,8.15
2023-02-14T10:22:15.134Z,8.00
2023-02-14T10:24:54.867Z,7.38
2023-02-14T10:27:46.926Z,8.75
2023-02-14T10:30:22.640Z,8.57
2023-02-14T10:33:00.116Z,7.65
2023-02-14T10:36:09.212Z,7.45
2023-02-14T10:38:56.898Z,7.88
2023-02-14T10:41:41.093Z,7.28
2023-02-14T10:44:53.503Z,6.47
2023-02-14T10:47:47.410Z,5.50
2023-02-14T10:50:26.972Z,6.13
2023-02-14T10:53:04.823Z,6.03
2023-02-14T10:55:57.840Z,6.97
2023-02-14T10:58:29.335Z,7.28
2023-02-14T11:01:18.461Z,6.45
2023-02-14T11:07:02.701Z,6.07
2023-02-14T11:09:29.874Z,6.05
2023-02-14T11:12:00.803Z,6.05
2023-02-14T11:14:31.805Z,4.72
2023-02-14T11:17:04.807Z,6.00
2023-02-14T11:19:37.237Z,6.13
2023-02-14T11:22:04.944Z,6.10
2023-02-14T11:24:48.921Z,6.93
2023-02-14T11:27:55.277Z,6.07
2023-02-14T11:30:34.093Z,7.07
2023-02-14T11:33:07.474Z,6.70
2023-02-14T11:35:35.106Z,6.32
2023-02-14T11:38:04.994Z,6.47
2023-02-14T11:40:40.493Z,5.53
2023-02-14T11:43:22.495Z,7.03
2023-02-14T11:45:50.556Z,7.32
2023-02-14T11:48:38.264Z,8.25
2023-02-14T11:51:10.478Z,7.45
2023-02-14T11:53:52.441Z,6.85
2023-02-14T11:56:21.472Z,8.07
2023-02-14T11:58:58.256Z,7.88
2023-02-14T12:01:39.212Z,6.80
2023-02-14T12:04:21.419Z,6.53
2023-02-14T12:06:48.714Z,8.13
2023-02-14T12:09:28.923Z,7.18
2023-02-14T12:12:04.869Z,7.72
2023-02-14T12:14:34.783Z,5.75
2023-02-14T12:17:24.122Z,6.60
2023-02-14T12:20:06.132Z,6.50
2023-02-14T12:23:11.748Z,6.07
2023-02-14T12:25:51.454Z,7.07
2023-02-14T12:28:35.707Z,6.68
2023-02-14T12:31:03.838Z,6.30
2023-02-14T12:33:50.717Z,6.15
2023-02-14T12:36:47.209Z,6.57
2023-02-14T12:39:23.434Z,6.60
2023-02-14T12:42:27.573Z,7.65
2023-02-14T12:45:09.790Z,5.85
2023-02-14T12:48:20.427Z,5.63
2023-02-14T12:51:13.621Z,4.85
2023-02-14T12:53:54.401Z,5.70
2023-02-14T12:56:49.435Z,4.80
2023-02-14T13:00:13.042Z,4.80
2023-02-14T13:03:53.432Z,4.88
2023-02-14T13:06:34.717Z,5.25
2023-02-14T13:09:11.634Z,5.10
2023-02-14T13:12:03.422Z,5.57
2023-02-14T13:15:10.184Z,5.95
2023-02-14T13:17:57.164Z,6.50
2023-02-14T13:20:59.411Z,5.22
2023-02-14T13:23:39.216Z,6.38
2023-02-14T13:26:18.188Z,5.10
2023-02-14T13:28:56.575Z,5.82
2023-02-14T13:31:27.482Z,5.40
2023-02-14T13:34:03.816Z,6.35
2023-02-14T13:36:42.405Z,6.03
2023-02-14T13:39:43.562Z,5.57
2023-02-14T13:42:11.615Z,5.00
2023-02-14T13:44:45.885Z,5.63
2023-02-14T13:47:27.127Z,5.32
2023-02-14T13:49:59.995Z,5.93
2023-02-14T13:53:18.955Z,5.95
2023-02-14T14:26:16.396Z,5.82
2023-02-14T14:28:51.916Z,5.45
2023-02-14T14:31:22.445Z,5.60
2023-02-14T14:34:04.220Z,5.80
2023-02-14T14:36:34.199Z,6.13
2023-02-14T14:39:22.157Z,6.60
2023-02-14T14:41:49.679Z,6.25
2023-02-14T14:44:28.758Z,5.97
2023-02-14T14:47:06.117Z,5.85
2023-02-14T14:49:33.327Z,5.15
2023-02-14T14:52:00.192Z,6.57
2023-02-14T14:55:06.455Z,5.60
2023-02-14T14:57:39.891Z,5.05
2023-02-14T15:00:31.944Z,6.15
2023-02-14T15:03:06.292Z,5.80
2023-02-14T15:05:54.490Z,4.50
2023-02-14T15:08:36.377Z,4.40
2023-02-14T15:11:07.946Z,5.68
2023-02-14T15:13:53.911Z,5.75
2023-02-14T15:16:49.790Z,7.20
2023-02-14T15:19:37.049Z,5.13
2023-02-14T15:22:36.410Z,6.47
2023-02-14T15:26:10.524Z,5.22
2023-02-14T15:28:45.140Z,4.80
2023-02-14T15:31:15.554Z,6.10
2023-02-14T15:33:45.581Z,5.60
2023-02-14T15:36:24.532Z,5.38
2023-02-14T15:38:53.817Z,5.72
2023-02-14T15:41:21.117Z,5.00
2023-02-14T15:43:57.119Z,6.18
2023-02-14T15:50:32.587Z,5.35
2023-02-14T15:56:26.607Z,7.57
2023-02-14T15:59:14.901Z,9.25
2023-02-14T16:10:38.442Z,6.50
2023-02-14T16:13:17.360Z,5.68
2023-02-14T16:16:08.606Z,5.45
2023-02-14T16:18:48.963Z,5.90
2023-02-14T16:21:22.303Z,6.70
2023-02-14T16:24:49.952Z,5.97
2023-02-14T16:27:17.106Z,5.43
2023-02-14T16:29:56.393Z,4.72
2023-02-14T16:32:28.760Z,6.07
2023-02-14T16:34:55.924Z,4.60
2023-02-14T16:37:40.966Z,5.88
2023-02-14T16:40:14.242Z,6.32
2023-02-14T16:42:48.205Z,5.35
2023-02-14T16:45:36.096Z,6.35
2023-02-14T16:48:06.406Z,6.40
2023-02-14T16:58:15.020Z,6.40
2023-02-14T17:00:42.729Z,5.68
2023-02-14T17:03:52.320Z,6.75
2023-02-14T17:06:38.377Z,6.10
2023-02-14T17:09:11.623Z,6.43
2023-02-14T17:11:46.128Z,5.63
2023-02-14T17:14:17.378Z,6.85
2023-02-14T17:16:44.632Z,6.75
2023-02-14T17:19:12.203Z,6.82
2023-02-14T17:22:09.353Z,6.82
2023-02-14T17:24:36.372Z,9.65
2023-02-14T17:27:03.558Z,10.52
2023-02-14T17:29:30.486Z,10.82
2023-02-14T17:31:58.002Z,8.85
2023-02-14T17:34:27.496Z,8.88
2023-02-14T17:36:54.280Z,9.85
2023-02-14T17:39:28.349Z,8.07
2023-02-14T17:42:04.812Z,7.97
2023-02-14T17:45:09.325Z,8.65
2023-02-14T17:47:36.297Z,8.20
2023-02-14T17:50:04.069Z,8.48
2023-02-14T17:52:31.417Z,8.35
2023-02-14T17:54:58.341Z,7.95
2023-02-14T17:57:25.660Z,8.52
2023-02-14T18:00:02.151Z,7.85
2023-02-14T18:02:29.370Z,8.85
2023-02-14T18:05:02.523Z,9.02
2023-02-14T18:07:59.432Z,9.18
2023-02-14T19:01:18.707Z,9.98
2023-02-14T19:03:46.107Z,11.20
2023-02-14T19:06:13.524Z,9.60
2023-02-14T19:08:42.123Z,10.07
2023-02-14T19:11:20.675Z,9.30
2023-02-14T19:13:51.008Z,12.13
2023-02-14T19:16:24.557Z,11.95
2023-02-14T19:18:53.366Z,9.48
2023-02-14T19:21:25.933Z,8.60
2023-02-14T19:23:58.291Z,9.55
2023-02-14T19:26:32.500Z,9.85
2023-02-14T19:29:05.305Z,11.63
2023-02-14T19:31:36.686Z,8.88
2023-02-14T19:37:05.212Z,8.45
2023-02-14T19:39:32.361Z,8.75
2023-02-14T19:41:59.800Z,9.05
2023-02-14T19:44:30.471Z,9.05
2023-02-14T19:47:00.221Z,8.52
2023-02-14T19:49:28.639Z,8.65
2023-02-14T19:51:56.958Z,16.95
2023-02-14T19:54:25.847Z,11.45
2023-02-14T19:56:53.907Z,7.90
2023-02-14T19:59:23.202Z,7.43
2023-02-14T20:01:56.857Z,7.25
2023-02-14T20:04:27.057Z,8.50
2023-02-14T20:06:55.029Z,7.22
2023-02-14T20:09:22.928Z,8.13
2023-02-14T20:11:53.053Z,8.52
2023-02-14T20:14:28.292Z,7.20
2023-02-14T20:16:58.289Z,7.38
2023-02-14T20:19:28.020Z,6.60
2023-02-14T20:21:57.761Z,9.73
2023-02-14T20:24:31.111Z,8.52
2023-02-14T20:27:00.699Z,7.63
2023-02-14T20:29:28.170Z,8.30
2023-02-14T20:32:00.198Z,7.38
2023-02-14T20:34:27.992Z,6.63
2023-02-14T20:36:56.133Z,6.28
2023-02-14T20:39:28.847Z,6.38
2023-02-14T20:41:55.549Z,6.15
2023-02-14T20:44:22.540Z,7.53
2023-02-14T20:46:51.952Z,8.73
2023-02-14T20:49:20.097Z,9.98
2023-02-14T20:51:49.750Z,9.80
2023-02-14T20:54:18.567Z,8.43
2023-02-14T20:56:46.527Z,8.77
2023-02-14T20:59:14.171Z,8.00
2023-02-14T21:01:41.307Z,9.20
2023-02-14T21:04:08.564Z,8.23
2023-02-14T21:06:39.656Z,6.72
2023-02-14T21:09:07.738Z,7.30
2023-02-14T21:11:34.880Z,7.00
2023-02-14T21:14:05.486Z,5.90
2023-02-14T21:16:33.458Z,6.68
2023-02-14T21:19:00.992Z,7.07
2023-02-14T21:21:34.971Z,9.98
2023-02-14T21:24:11.491Z,7.30
2023-02-14T21:26:40.164Z,7.47
2023-02-14T21:29:08.323Z,7.55
2023-02-14T21:31:36.004Z,6.05
2023-02-14T21:34:06.548Z,6.00
2023-02-14T21:36:37.025Z,7.15
2023-02-14T21:39:06.349Z,7.88
2023-02-14T21:41:34.858Z,8.35
2023-02-14T21:44:02.937Z,7.45
2023-02-14T21:46:36.486Z,8.50
2023-02-14T21:49:24.146Z,7.25
2023-02-14T21:51:51.633Z,7.63
2023-02-14T21:54:21.807Z,6.30
2023-02-14T21:56:50.166Z,6.88
2023-02-14T21:59:17.711Z,7.15
2023-02-14T22:01:44.759Z,7.80
2023-02-14T22:04:12.814Z,7.50
2023-02-14T22:06:41.416Z,7.05
2023-02-14T22:09:09.421Z,6.88
2023-02-14T22:11:36.206Z,6.65
2023-02-14T22:14:03.457Z,7.28
2023-02-14T22:16:30.582Z,5.75
2023-02-14T22:18:57.660Z,6.47
2023-02-14T22:21:33.636Z,6.30
2023-02-14T22:24:01.138Z,9.85
2023-02-14T22:26:31.228Z,7.35
2023-02-14T22:29:00.526Z,7.43
2023-02-14T22:31:32.191Z,8.90
2023-02-14T22:33:59.025Z,9.57
2023-02-14T22:36:25.979Z,8.02
2023-02-14T22:38:53.337Z,6.40
2023-02-14T22:41:22.606Z,5.93
2023-02-14T22:43:49.749Z,5.68
2023-02-14T22:46:20.115Z,6.50
2023-02-14T22:48:48.792Z,6.03
2023-02-14T22:51:33.966Z,7.57
2023-02-14T22:54:07.117Z,6.85
2023-02-14T22:56:37.485Z,6.78
2023-02-14T22:59:07.932Z,6.35
2023-02-14T23:01:35.812Z,6.45
2023-02-14T23:04:04.347Z,7.25
2023-02-14T23:06:33.907Z,6.78
2023-02-14T23:09:05.428Z,6.05
2023-02-14T23:11:33.692Z,6.40
2023-02-14T23:14:19.591Z,7.10
2023-02-14T23:17:05.585Z,6.18
2023-02-14T23:19:52.854Z,5.78
2023-02-14T23:22:30.552Z,6.47
2023-02-14T23:25:00.062Z,6.85
2023-02-14T23:27:36.428Z,7.35
2023-02-14T23:30:05.791Z,7.68
2023-02-14T23:32:32.967Z,7.38
2023-02-14T23:35:00.192Z,7.80
2023-02-14T23:37:27.602Z,7.13
2023-02-14T23:39:54.536Z,8.23
2023-02-14T23:42:21.363Z,9.18
2023-02-14T23:44:50.394Z,8.50
2023-02-14T23:47:17.561Z,7.35
2023-02-14T23:49:47.028Z,7.10
2023-02-14T23:52:14.328Z,7.32
2023-02-14T23:54:41.538Z,7.68
2023-02-14T23:57:09.149Z,11.57
2023-02-14T23:59:36.150Z,6.28
